<?xml version="1.0" encoding="UTF-8" standalone="no" ?>
<gpx xmlns="http://www.topografix.com/GPX/1/1" xmlns:xsi="http://www.w3.org/2001/XMLSchema-instance" xsi:schemaLocation="http://www.topografix.com/GPX/1/1 http://www.topografix.com/GPX/1/1/gpx.xsd" version="1.1" creator="VisuGPX - https://www.visugpx.com">
  <metadata>
    <name>Gorges Du Lison</name>
    <desc><![CDATA[Route created on plotaroute.com]]></desc>
  </metadata>
  <trk>
    <name><![CDATA[Gorges Du Lison]]></name>
    <trkseg>
      <trkpt lat="47.02909" lon="5.98577">
        <ele>334</ele>
        <time>2022-06-05T00:00:00Z</time>
      </trkpt>
      <trkpt lat="47.02904" lon="5.98579">
        <ele>334</ele>
        <time>2022-06-05T00:00:04Z</time>
      </trkpt>
      <trkpt lat="47.02889" lon="5.98593">
        <ele>334</ele>
        <time>2022-06-05T00:00:18Z</time>
      </trkpt>
      <trkpt lat="47.02867" lon="5.98645">
        <ele>335</ele>
        <time>2022-06-05T00:00:52Z</time>
      </trkpt>
      <trkpt lat="47.02845" lon="5.98654">
        <ele>333</ele>
        <time>2022-06-05T00:01:10Z</time>
      </trkpt>
      <trkpt lat="47.02835" lon="5.98649">
        <ele>333</ele>
        <time>2022-06-05T00:01:18Z</time>
      </trkpt>
      <trkpt lat="47.02816" lon="5.98608">
        <ele>333</ele>
        <time>2022-06-05T00:01:45Z</time>
      </trkpt>
      <trkpt lat="47.02796" lon="5.98629">
        <ele>336</ele>
        <time>2022-06-05T00:02:05Z</time>
      </trkpt>
      <trkpt lat="47.0276" lon="5.98678">
        <ele>343</ele>
        <time>2022-06-05T00:02:44Z</time>
      </trkpt>
      <trkpt lat="47.02638" lon="5.9879">
        <ele>358</ele>
        <time>2022-06-05T00:04:40Z</time>
      </trkpt>
      <trkpt lat="47.02626" lon="5.98831">
        <ele>363</ele>
        <time>2022-06-05T00:05:04Z</time>
      </trkpt>
      <trkpt lat="47.02631" lon="5.98947">
        <ele>383</ele>
        <time>2022-06-05T00:06:07Z</time>
      </trkpt>
      <trkpt lat="47.02614" lon="5.99">
        <ele>396</ele>
        <time>2022-06-05T00:06:39Z</time>
      </trkpt>
      <trkpt lat="47.02583" lon="5.99041">
        <ele>410</ele>
        <time>2022-06-05T00:07:13Z</time>
      </trkpt>
      <trkpt lat="47.02531" lon="5.99208">
        <ele>420</ele>
        <time>2022-06-05T00:08:53Z</time>
      </trkpt>
      <trkpt lat="47.02493" lon="5.99317">
        <ele>426</ele>
        <time>2022-06-05T00:10:00Z</time>
      </trkpt>
      <trkpt lat="47.02454" lon="5.99344">
        <ele>430</ele>
        <time>2022-06-05T00:10:35Z</time>
      </trkpt>
      <trkpt lat="47.02427" lon="5.99369">
        <ele>432</ele>
        <time>2022-06-05T00:11:00Z</time>
      </trkpt>
      <trkpt lat="47.024" lon="5.99363">
        <ele>434</ele>
        <time>2022-06-05T00:11:23Z</time>
      </trkpt>
      <trkpt lat="47.02381" lon="5.99328">
        <ele>433</ele>
        <time>2022-06-05T00:11:47Z</time>
      </trkpt>
      <trkpt lat="47.02348" lon="5.99311">
        <ele>431</ele>
        <time>2022-06-05T00:12:15Z</time>
      </trkpt>
      <trkpt lat="47.02276" lon="5.993">
        <ele>423</ele>
        <time>2022-06-05T00:13:13Z</time>
      </trkpt>
      <trkpt lat="47.02214" lon="5.99314">
        <ele>420</ele>
        <time>2022-06-05T00:14:04Z</time>
      </trkpt>
      <trkpt lat="47.02165" lon="5.99334">
        <ele>420</ele>
        <time>2022-06-05T00:14:44Z</time>
      </trkpt>
      <trkpt lat="47.02082" lon="5.99323">
        <ele>418</ele>
        <time>2022-06-05T00:15:51Z</time>
      </trkpt>
      <trkpt lat="47.02027" lon="5.99367">
        <ele>435</ele>
        <time>2022-06-05T00:16:41Z</time>
      </trkpt>
      <trkpt lat="47.01979" lon="5.99359">
        <ele>435</ele>
        <time>2022-06-05T00:17:20Z</time>
      </trkpt>
      <trkpt lat="47.01909" lon="5.99362">
        <ele>435</ele>
        <time>2022-06-05T00:18:16Z</time>
      </trkpt>
      <trkpt lat="47.01875" lon="5.99437">
        <ele>445</ele>
        <time>2022-06-05T00:19:05Z</time>
      </trkpt>
      <trkpt lat="47.01694" lon="5.99777">
        <ele>462</ele>
        <time>2022-06-05T00:23:01Z</time>
      </trkpt>
      <trkpt lat="47.01613" lon="5.99861">
        <ele>462</ele>
        <time>2022-06-05T00:24:21Z</time>
      </trkpt>
      <trkpt lat="47.0139" lon="6.00294">
        <ele>482</ele>
        <time>2022-06-05T00:29:17Z</time>
      </trkpt>
      <trkpt lat="47.01372" lon="6.00305">
        <ele>483</ele>
        <time>2022-06-05T00:29:33Z</time>
      </trkpt>
      <trkpt lat="47.0135" lon="6.0035">
        <ele>484</ele>
        <time>2022-06-05T00:30:03Z</time>
      </trkpt>
      <trkpt lat="47.01352" lon="6.00379">
        <ele>485</ele>
        <time>2022-06-05T00:30:19Z</time>
      </trkpt>
      <trkpt lat="47.01349" lon="6.00432">
        <ele>486</ele>
        <time>2022-06-05T00:30:47Z</time>
      </trkpt>
      <trkpt lat="47.01338" lon="6.00475">
        <ele>487</ele>
        <time>2022-06-05T00:31:13Z</time>
      </trkpt>
      <trkpt lat="47.01292" lon="6.00565">
        <ele>490</ele>
        <time>2022-06-05T00:32:14Z</time>
      </trkpt>
      <trkpt lat="47.01237" lon="6.00644">
        <ele>495</ele>
        <time>2022-06-05T00:33:16Z</time>
      </trkpt>
      <trkpt lat="47.01221" lon="6.00763">
        <ele>498</ele>
        <time>2022-06-05T00:34:22Z</time>
      </trkpt>
      <trkpt lat="47.01202" lon="6.00808">
        <ele>500</ele>
        <time>2022-06-05T00:34:51Z</time>
      </trkpt>
      <trkpt lat="47.01178" lon="6.00894">
        <ele>504</ele>
        <time>2022-06-05T00:35:42Z</time>
      </trkpt>
      <trkpt lat="47.01095" lon="6.01003">
        <ele>512</ele>
        <time>2022-06-05T00:37:11Z</time>
      </trkpt>
      <trkpt lat="47.01022" lon="6.01179">
        <ele>518</ele>
        <time>2022-06-05T00:39:04Z</time>
      </trkpt>
      <trkpt lat="47.00976" lon="6.01297">
        <ele>519</ele>
        <time>2022-06-05T00:40:18Z</time>
      </trkpt>
      <trkpt lat="47.00967" lon="6.01347">
        <ele>519</ele>
        <time>2022-06-05T00:40:46Z</time>
      </trkpt>
      <trkpt lat="47.00969" lon="6.01472">
        <ele>520</ele>
        <time>2022-06-05T00:41:55Z</time>
      </trkpt>
      <trkpt lat="47.00965" lon="6.01513">
        <ele>520</ele>
        <time>2022-06-05T00:42:17Z</time>
      </trkpt>
      <trkpt lat="47.00959" lon="6.01535">
        <ele>520</ele>
        <time>2022-06-05T00:42:30Z</time>
      </trkpt>
      <trkpt lat="47.00953" lon="6.01552">
        <ele>520</ele>
        <time>2022-06-05T00:42:41Z</time>
      </trkpt>
      <trkpt lat="47.00927" lon="6.01609">
        <ele>521</ele>
        <time>2022-06-05T00:43:18Z</time>
      </trkpt>
      <trkpt lat="47.00906" lon="6.0167">
        <ele>522</ele>
        <time>2022-06-05T00:43:55Z</time>
      </trkpt>
      <trkpt lat="47.00897" lon="6.01708">
        <ele>522</ele>
        <time>2022-06-05T00:44:17Z</time>
      </trkpt>
      <trkpt lat="47.0089" lon="6.01777">
        <ele>521</ele>
        <time>2022-06-05T00:44:56Z</time>
      </trkpt>
      <trkpt lat="47.0086" lon="6.01977">
        <ele>518</ele>
        <time>2022-06-05T00:46:47Z</time>
      </trkpt>
      <trkpt lat="47.00861" lon="6.0201">
        <ele>518</ele>
        <time>2022-06-05T00:47:05Z</time>
      </trkpt>
      <trkpt lat="47.0088" lon="6.02097">
        <ele>516</ele>
        <time>2022-06-05T00:47:56Z</time>
      </trkpt>
      <trkpt lat="47.00904" lon="6.02176">
        <ele>517</ele>
        <time>2022-06-05T00:48:43Z</time>
      </trkpt>
      <trkpt lat="47.00901" lon="6.02174">
        <ele>517</ele>
        <time>2022-06-05T00:48:45Z</time>
      </trkpt>
      <trkpt lat="47.00893" lon="6.02176">
        <ele>517</ele>
        <time>2022-06-05T00:48:52Z</time>
      </trkpt>
      <trkpt lat="47.00855" lon="6.02201">
        <ele>516</ele>
        <time>2022-06-05T00:49:26Z</time>
      </trkpt>
      <trkpt lat="47.00841" lon="6.02199">
        <ele>515</ele>
        <time>2022-06-05T00:49:37Z</time>
      </trkpt>
      <trkpt lat="47.00836" lon="6.02195">
        <ele>515</ele>
        <time>2022-06-05T00:49:42Z</time>
      </trkpt>
      <trkpt lat="47.00829" lon="6.02186">
        <ele>515</ele>
        <time>2022-06-05T00:49:49Z</time>
      </trkpt>
      <trkpt lat="47.00821" lon="6.02165">
        <ele>515</ele>
        <time>2022-06-05T00:50:02Z</time>
      </trkpt>
      <trkpt lat="47.00797" lon="6.02077">
        <ele>516</ele>
        <time>2022-06-05T00:50:54Z</time>
      </trkpt>
      <trkpt lat="47.00784" lon="6.02053">
        <ele>516</ele>
        <time>2022-06-05T00:51:11Z</time>
      </trkpt>
      <trkpt lat="47.00761" lon="6.02035">
        <ele>516</ele>
        <time>2022-06-05T00:51:32Z</time>
      </trkpt>
      <trkpt lat="47.00734" lon="6.02005">
        <ele>518</ele>
        <time>2022-06-05T00:51:58Z</time>
      </trkpt>
      <trkpt lat="47.00702" lon="6.01995">
        <ele>520</ele>
        <time>2022-06-05T00:52:25Z</time>
      </trkpt>
      <trkpt lat="47.00696" lon="6.01989">
        <ele>520</ele>
        <time>2022-06-05T00:52:31Z</time>
      </trkpt>
      <trkpt lat="47.00688" lon="6.01982">
        <ele>521</ele>
        <time>2022-06-05T00:52:38Z</time>
      </trkpt>
      <trkpt lat="47.0067" lon="6.01976">
        <ele>522</ele>
        <time>2022-06-05T00:52:53Z</time>
      </trkpt>
      <trkpt lat="47.00601" lon="6.01954">
        <ele>521</ele>
        <time>2022-06-05T00:53:50Z</time>
      </trkpt>
      <trkpt lat="47.00561" lon="6.01946">
        <ele>516</ele>
        <time>2022-06-05T00:54:21Z</time>
      </trkpt>
      <trkpt lat="47.00527" lon="6.01946">
        <ele>509</ele>
        <time>2022-06-05T00:54:49Z</time>
      </trkpt>
      <trkpt lat="47.00498" lon="6.01912">
        <ele>507</ele>
        <time>2022-06-05T00:55:19Z</time>
      </trkpt>
      <trkpt lat="47.00475" lon="6.01866">
        <ele>505</ele>
        <time>2022-06-05T00:55:50Z</time>
      </trkpt>
      <trkpt lat="47.00407" lon="6.01761">
        <ele>498</ele>
        <time>2022-06-05T00:57:09Z</time>
      </trkpt>
      <trkpt lat="47.00392" lon="6.01718">
        <ele>494</ele>
        <time>2022-06-05T00:57:35Z</time>
      </trkpt>
      <trkpt lat="47.0036" lon="6.01554">
        <ele>489</ele>
        <time>2022-06-05T00:59:09Z</time>
      </trkpt>
      <trkpt lat="47.00333" lon="6.01464">
        <ele>484</ele>
        <time>2022-06-05T01:00:02Z</time>
      </trkpt>
      <trkpt lat="47.00286" lon="6.01341">
        <ele>471</ele>
        <time>2022-06-05T01:01:19Z</time>
      </trkpt>
      <trkpt lat="47.00281" lon="6.01371">
        <ele>466</ele>
        <time>2022-06-05T01:01:36Z</time>
      </trkpt>
      <trkpt lat="47.00305" lon="6.01592">
        <ele>458</ele>
        <time>2022-06-05T01:03:38Z</time>
      </trkpt>
      <trkpt lat="47.00314" lon="6.01729">
        <ele>451</ele>
        <time>2022-06-05T01:04:53Z</time>
      </trkpt>
      <trkpt lat="47.00311" lon="6.01765">
        <ele>447</ele>
        <time>2022-06-05T01:05:13Z</time>
      </trkpt>
      <trkpt lat="47.00322" lon="6.01801">
        <ele>447</ele>
        <time>2022-06-05T01:05:35Z</time>
      </trkpt>
      <trkpt lat="47.00325" lon="6.01849">
        <ele>442</ele>
        <time>2022-06-05T01:06:01Z</time>
      </trkpt>
      <trkpt lat="47.00343" lon="6.01925">
        <ele>436</ele>
        <time>2022-06-05T01:06:45Z</time>
      </trkpt>
      <trkpt lat="47.00393" lon="6.02089">
        <ele>440</ele>
        <time>2022-06-05T01:08:23Z</time>
      </trkpt>
      <trkpt lat="47.00423" lon="6.02158">
        <ele>434</ele>
        <time>2022-06-05T01:09:08Z</time>
      </trkpt>
      <trkpt lat="47.00446" lon="6.02196">
        <ele>442</ele>
        <time>2022-06-05T01:09:35Z</time>
      </trkpt>
      <trkpt lat="47.0045" lon="6.02217">
        <ele>443</ele>
        <time>2022-06-05T01:09:47Z</time>
      </trkpt>
      <trkpt lat="47.00447" lon="6.02229">
        <ele>442</ele>
        <time>2022-06-05T01:09:55Z</time>
      </trkpt>
      <trkpt lat="47.00433" lon="6.02226">
        <ele>442</ele>
        <time>2022-06-05T01:10:06Z</time>
      </trkpt>
      <trkpt lat="47.00383" lon="6.02139">
        <ele>444</ele>
        <time>2022-06-05T01:11:08Z</time>
      </trkpt>
      <trkpt lat="47.00362" lon="6.02089">
        <ele>441</ele>
        <time>2022-06-05T01:11:40Z</time>
      </trkpt>
      <trkpt lat="47.00355" lon="6.02058">
        <ele>438</ele>
        <time>2022-06-05T01:11:58Z</time>
      </trkpt>
      <trkpt lat="47.00344" lon="6.02039">
        <ele>435</ele>
        <time>2022-06-05T01:12:12Z</time>
      </trkpt>
      <trkpt lat="47.00331" lon="6.01996">
        <ele>428</ele>
        <time>2022-06-05T01:12:37Z</time>
      </trkpt>
      <trkpt lat="47.00301" lon="6.01937">
        <ele>433</ele>
        <time>2022-06-05T01:13:18Z</time>
      </trkpt>
      <trkpt lat="47.00277" lon="6.01908">
        <ele>431</ele>
        <time>2022-06-05T01:13:42Z</time>
      </trkpt>
      <trkpt lat="47.00217" lon="6.0177">
        <ele>436</ele>
        <time>2022-06-05T01:15:12Z</time>
      </trkpt>
      <trkpt lat="47.00226" lon="6.01708">
        <ele>431</ele>
        <time>2022-06-05T01:15:46Z</time>
      </trkpt>
      <trkpt lat="47.00216" lon="6.01603">
        <ele>431</ele>
        <time>2022-06-05T01:16:44Z</time>
      </trkpt>
      <trkpt lat="47.00203" lon="6.0157">
        <ele>430</ele>
        <time>2022-06-05T01:17:05Z</time>
      </trkpt>
      <trkpt lat="47.00176" lon="6.01524">
        <ele>426</ele>
        <time>2022-06-05T01:17:38Z</time>
      </trkpt>
      <trkpt lat="47.00171" lon="6.01484">
        <ele>422</ele>
        <time>2022-06-05T01:18:01Z</time>
      </trkpt>
      <trkpt lat="47.00182" lon="6.01457">
        <ele>423</ele>
        <time>2022-06-05T01:18:18Z</time>
      </trkpt>
      <trkpt lat="47.00181" lon="6.01414">
        <ele>421</ele>
        <time>2022-06-05T01:18:41Z</time>
      </trkpt>
      <trkpt lat="47.00167" lon="6.0136">
        <ele>416</ele>
        <time>2022-06-05T01:19:13Z</time>
      </trkpt>
      <trkpt lat="47.00161" lon="6.01252">
        <ele>416</ele>
        <time>2022-06-05T01:20:12Z</time>
      </trkpt>
      <trkpt lat="47.00157" lon="6.01223">
        <ele>417</ele>
        <time>2022-06-05T01:20:28Z</time>
      </trkpt>
      <trkpt lat="47.00161" lon="6.01198">
        <ele>415</ele>
        <time>2022-06-05T01:20:42Z</time>
      </trkpt>
      <trkpt lat="47.00168" lon="6.01074">
        <ele>410</ele>
        <time>2022-06-05T01:21:50Z</time>
      </trkpt>
      <trkpt lat="47.00154" lon="6.01043">
        <ele>412</ele>
        <time>2022-06-05T01:22:11Z</time>
      </trkpt>
      <trkpt lat="47.00156" lon="6.00983">
        <ele>412</ele>
        <time>2022-06-05T01:22:43Z</time>
      </trkpt>
      <trkpt lat="47.00142" lon="6.00896">
        <ele>411</ele>
        <time>2022-06-05T01:23:33Z</time>
      </trkpt>
      <trkpt lat="47.0009" lon="6.00736">
        <ele>402</ele>
        <time>2022-06-05T01:25:09Z</time>
      </trkpt>
      <trkpt lat="47.0008" lon="6.00709">
        <ele>399</ele>
        <time>2022-06-05T01:25:26Z</time>
      </trkpt>
      <trkpt lat="47.00076" lon="6.00651">
        <ele>394</ele>
        <time>2022-06-05T01:25:58Z</time>
      </trkpt>
      <trkpt lat="47.00074" lon="6.00598">
        <ele>390</ele>
        <time>2022-06-05T01:26:27Z</time>
      </trkpt>
      <trkpt lat="47.00062" lon="6.00554">
        <ele>391</ele>
        <time>2022-06-05T01:26:53Z</time>
      </trkpt>
      <trkpt lat="47.00046" lon="6.00453">
        <ele>386</ele>
        <time>2022-06-05T01:27:49Z</time>
      </trkpt>
      <trkpt lat="47.0002" lon="6.00377">
        <ele>378</ele>
        <time>2022-06-05T01:28:36Z</time>
      </trkpt>
      <trkpt lat="46.99991" lon="6.00341">
        <ele>371</ele>
        <time>2022-06-05T01:29:06Z</time>
      </trkpt>
      <trkpt lat="46.9999" lon="6.00318">
        <ele>371</ele>
        <time>2022-06-05T01:29:19Z</time>
      </trkpt>
      <trkpt lat="46.99996" lon="6.00277">
        <ele>374</ele>
        <time>2022-06-05T01:29:42Z</time>
      </trkpt>
      <trkpt lat="47.0004" lon="6.00179">
        <ele>380</ele>
        <time>2022-06-05T01:30:46Z</time>
      </trkpt>
      <trkpt lat="47.00079" lon="6.00128">
        <ele>380</ele>
        <time>2022-06-05T01:31:28Z</time>
      </trkpt>
      <trkpt lat="47.00126" lon="6.00096">
        <ele>375</ele>
        <time>2022-06-05T01:32:10Z</time>
      </trkpt>
      <trkpt lat="47.00209" lon="6.0009">
        <ele>377</ele>
        <time>2022-06-05T01:33:16Z</time>
      </trkpt>
      <trkpt lat="47.00259" lon="6.00061">
        <ele>382</ele>
        <time>2022-06-05T01:33:59Z</time>
      </trkpt>
      <trkpt lat="47.00268" lon="6.0005">
        <ele>386</ele>
        <time>2022-06-05T01:34:09Z</time>
      </trkpt>
      <trkpt lat="47.00277" lon="6.00018">
        <ele>387</ele>
        <time>2022-06-05T01:34:28Z</time>
      </trkpt>
      <trkpt lat="47.00281" lon="5.99978">
        <ele>386</ele>
        <time>2022-06-05T01:34:50Z</time>
      </trkpt>
      <trkpt lat="47.00277" lon="5.99922">
        <ele>384</ele>
        <time>2022-06-05T01:35:20Z</time>
      </trkpt>
      <trkpt lat="47.00268" lon="5.99885">
        <ele>386</ele>
        <time>2022-06-05T01:35:42Z</time>
      </trkpt>
      <trkpt lat="47.00229" lon="5.99833">
        <ele>378</ele>
        <time>2022-06-05T01:36:24Z</time>
      </trkpt>
      <trkpt lat="47.00162" lon="5.99789">
        <ele>380</ele>
        <time>2022-06-05T01:37:23Z</time>
      </trkpt>
      <trkpt lat="47.0007" lon="5.99785">
        <ele>377</ele>
        <time>2022-06-05T01:38:36Z</time>
      </trkpt>
      <trkpt lat="47" lon="5.99794">
        <ele>373</ele>
        <time>2022-06-05T01:39:33Z</time>
      </trkpt>
      <trkpt lat="46.99964" lon="5.99768">
        <ele>377</ele>
        <time>2022-06-05T01:40:05Z</time>
      </trkpt>
      <trkpt lat="46.99919" lon="5.99691">
        <ele>371</ele>
        <time>2022-06-05T01:41:01Z</time>
      </trkpt>
      <trkpt lat="46.99905" lon="5.99651">
        <ele>372</ele>
        <time>2022-06-05T01:41:25Z</time>
      </trkpt>
      <trkpt lat="46.999" lon="5.99595">
        <ele>373</ele>
        <time>2022-06-05T01:41:56Z</time>
      </trkpt>
      <trkpt lat="46.99915" lon="5.99561">
        <ele>370</ele>
        <time>2022-06-05T01:42:18Z</time>
      </trkpt>
      <trkpt lat="46.99951" lon="5.9952">
        <ele>367</ele>
        <time>2022-06-05T01:42:54Z</time>
      </trkpt>
      <trkpt lat="46.99985" lon="5.995">
        <ele>362</ele>
        <time>2022-06-05T01:43:24Z</time>
      </trkpt>
      <trkpt lat="47.00016" lon="5.99506">
        <ele>363</ele>
        <time>2022-06-05T01:43:49Z</time>
      </trkpt>
      <trkpt lat="47.00093" lon="5.99565">
        <ele>372</ele>
        <time>2022-06-05T01:44:59Z</time>
      </trkpt>
      <trkpt lat="47.00167" lon="5.9958">
        <ele>371</ele>
        <time>2022-06-05T01:45:59Z</time>
      </trkpt>
      <trkpt lat="47.00197" lon="5.99575">
        <ele>376</ele>
        <time>2022-06-05T01:46:23Z</time>
      </trkpt>
      <trkpt lat="47.00229" lon="5.99561">
        <ele>379</ele>
        <time>2022-06-05T01:46:50Z</time>
      </trkpt>
      <trkpt lat="47.00252" lon="5.99535">
        <ele>376</ele>
        <time>2022-06-05T01:47:13Z</time>
      </trkpt>
      <trkpt lat="47.00279" lon="5.99461">
        <ele>381</ele>
        <time>2022-06-05T01:47:59Z</time>
      </trkpt>
      <trkpt lat="47.00278" lon="5.99396">
        <ele>380</ele>
        <time>2022-06-05T01:48:34Z</time>
      </trkpt>
      <trkpt lat="47.0026" lon="5.99348">
        <ele>372</ele>
        <time>2022-06-05T01:49:04Z</time>
      </trkpt>
      <trkpt lat="47.00208" lon="5.99262">
        <ele>374</ele>
        <time>2022-06-05T01:50:07Z</time>
      </trkpt>
      <trkpt lat="47.00157" lon="5.99191">
        <ele>370</ele>
        <time>2022-06-05T01:51:03Z</time>
      </trkpt>
      <trkpt lat="47.00083" lon="5.99064">
        <ele>364</ele>
        <time>2022-06-05T01:52:34Z</time>
      </trkpt>
      <trkpt lat="47.00064" lon="5.9901">
        <ele>369</ele>
        <time>2022-06-05T01:53:08Z</time>
      </trkpt>
      <trkpt lat="47.00075" lon="5.98959">
        <ele>367</ele>
        <time>2022-06-05T01:53:37Z</time>
      </trkpt>
      <trkpt lat="47.00098" lon="5.98894">
        <ele>371</ele>
        <time>2022-06-05T01:54:16Z</time>
      </trkpt>
      <trkpt lat="47.00104" lon="5.98858">
        <ele>371</ele>
        <time>2022-06-05T01:54:37Z</time>
      </trkpt>
      <trkpt lat="47.00153" lon="5.98693">
        <ele>378</ele>
        <time>2022-06-05T01:56:16Z</time>
      </trkpt>
      <trkpt lat="47.00212" lon="5.98597">
        <ele>383</ele>
        <time>2022-06-05T01:57:26Z</time>
      </trkpt>
      <trkpt lat="47.00285" lon="5.98422">
        <ele>373</ele>
        <time>2022-06-05T01:59:18Z</time>
      </trkpt>
      <trkpt lat="47.00316" lon="5.98331">
        <ele>364</ele>
        <time>2022-06-05T02:00:14Z</time>
      </trkpt>
      <trkpt lat="47.00335" lon="5.98298">
        <ele>363</ele>
        <time>2022-06-05T02:00:37Z</time>
      </trkpt>
      <trkpt lat="47.00355" lon="5.98272">
        <ele>363</ele>
        <time>2022-06-05T02:00:59Z</time>
      </trkpt>
      <trkpt lat="47.00382" lon="5.98261">
        <ele>363</ele>
        <time>2022-06-05T02:01:21Z</time>
      </trkpt>
      <trkpt lat="47.00436" lon="5.98266">
        <ele>364</ele>
        <time>2022-06-05T02:02:04Z</time>
      </trkpt>
      <trkpt lat="47.00462" lon="5.98282">
        <ele>365</ele>
        <time>2022-06-05T02:02:27Z</time>
      </trkpt>
      <trkpt lat="47.00537" lon="5.9836">
        <ele>368</ele>
        <time>2022-06-05T02:03:41Z</time>
      </trkpt>
      <trkpt lat="47.00615" lon="5.98481">
        <ele>371</ele>
        <time>2022-06-05T02:05:12Z</time>
      </trkpt>
      <trkpt lat="47.00766" lon="5.9868">
        <ele>369</ele>
        <time>2022-06-05T02:07:55Z</time>
      </trkpt>
      <trkpt lat="47.0078" lon="5.98714">
        <ele>369</ele>
        <time>2022-06-05T02:08:17Z</time>
      </trkpt>
      <trkpt lat="47.00782" lon="5.98761">
        <ele>366</ele>
        <time>2022-06-05T02:08:42Z</time>
      </trkpt>
      <trkpt lat="47.0077" lon="5.98795">
        <ele>364</ele>
        <time>2022-06-05T02:09:03Z</time>
      </trkpt>
      <trkpt lat="47.0073" lon="5.98848">
        <ele>367</ele>
        <time>2022-06-05T02:09:46Z</time>
      </trkpt>
      <trkpt lat="47.00711" lon="5.98883">
        <ele>373</ele>
        <time>2022-06-05T02:10:10Z</time>
      </trkpt>
      <trkpt lat="47.00699" lon="5.98928">
        <ele>376</ele>
        <time>2022-06-05T02:10:37Z</time>
      </trkpt>
      <trkpt lat="47.00705" lon="5.98982">
        <ele>377</ele>
        <time>2022-06-05T02:11:07Z</time>
      </trkpt>
      <trkpt lat="47.00756" lon="5.99045">
        <ele>370</ele>
        <time>2022-06-05T02:12:00Z</time>
      </trkpt>
      <trkpt lat="47.00819" lon="5.99091">
        <ele>372</ele>
        <time>2022-06-05T02:12:57Z</time>
      </trkpt>
      <trkpt lat="47.00846" lon="5.99098">
        <ele>373</ele>
        <time>2022-06-05T02:13:19Z</time>
      </trkpt>
      <trkpt lat="47.00869" lon="5.99097">
        <ele>372</ele>
        <time>2022-06-05T02:13:37Z</time>
      </trkpt>
      <trkpt lat="47.01026" lon="5.99047">
        <ele>362</ele>
        <time>2022-06-05T02:15:46Z</time>
      </trkpt>
      <trkpt lat="47.01098" lon="5.99076">
        <ele>364</ele>
        <time>2022-06-05T02:16:46Z</time>
      </trkpt>
      <trkpt lat="47.01254" lon="5.99233">
        <ele>377</ele>
        <time>2022-06-05T02:19:18Z</time>
      </trkpt>
      <trkpt lat="47.01265" lon="5.99237">
        <ele>379</ele>
        <time>2022-06-05T02:19:26Z</time>
      </trkpt>
      <trkpt lat="47.01303" lon="5.99236">
        <ele>382</ele>
        <time>2022-06-05T02:19:57Z</time>
      </trkpt>
      <trkpt lat="47.01329" lon="5.99222">
        <ele>378</ele>
        <time>2022-06-05T02:20:19Z</time>
      </trkpt>
      <trkpt lat="47.01343" lon="5.99208">
        <ele>376</ele>
        <time>2022-06-05T02:20:33Z</time>
      </trkpt>
      <trkpt lat="47.01382" lon="5.99146">
        <ele>371</ele>
        <time>2022-06-05T02:21:19Z</time>
      </trkpt>
      <trkpt lat="47.01403" lon="5.99085">
        <ele>362</ele>
        <time>2022-06-05T02:21:57Z</time>
      </trkpt>
      <trkpt lat="47.01445" lon="5.98873">
        <ele>351</ele>
        <time>2022-06-05T02:23:57Z</time>
      </trkpt>
      <trkpt lat="47.01468" lon="5.98807">
        <ele>352</ele>
        <time>2022-06-05T02:24:37Z</time>
      </trkpt>
      <trkpt lat="47.01488" lon="5.98792">
        <ele>352</ele>
        <time>2022-06-05T02:24:56Z</time>
      </trkpt>
      <trkpt lat="47.01552" lon="5.98802">
        <ele>355</ele>
        <time>2022-06-05T02:25:47Z</time>
      </trkpt>
      <trkpt lat="47.01575" lon="5.98819">
        <ele>354</ele>
        <time>2022-06-05T02:26:08Z</time>
      </trkpt>
      <trkpt lat="47.01611" lon="5.98877">
        <ele>357</ele>
        <time>2022-06-05T02:26:51Z</time>
      </trkpt>
      <trkpt lat="47.01682" lon="5.99057">
        <ele>362</ele>
        <time>2022-06-05T02:28:44Z</time>
      </trkpt>
      <trkpt lat="47.01757" lon="5.99143">
        <ele>356</ele>
        <time>2022-06-05T02:30:01Z</time>
      </trkpt>
      <trkpt lat="47.01781" lon="5.99161">
        <ele>353</ele>
        <time>2022-06-05T02:30:22Z</time>
      </trkpt>
      <trkpt lat="47.01834" lon="5.99193">
        <ele>351</ele>
        <time>2022-06-05T02:31:08Z</time>
      </trkpt>
      <trkpt lat="47.01882" lon="5.99189">
        <ele>352</ele>
        <time>2022-06-05T02:31:47Z</time>
      </trkpt>
      <trkpt lat="47.02001" lon="5.99145">
        <ele>352</ele>
        <time>2022-06-05T02:33:25Z</time>
      </trkpt>
      <trkpt lat="47.02124" lon="5.99064">
        <ele>345</ele>
        <time>2022-06-05T02:35:13Z</time>
      </trkpt>
      <trkpt lat="47.02175" lon="5.99053">
        <ele>345</ele>
        <time>2022-06-05T02:35:54Z</time>
      </trkpt>
      <trkpt lat="47.02224" lon="5.99036">
        <ele>347</ele>
        <time>2022-06-05T02:36:35Z</time>
      </trkpt>
      <trkpt lat="47.02267" lon="5.99029">
        <ele>350</ele>
        <time>2022-06-05T02:37:10Z</time>
      </trkpt>
      <trkpt lat="47.0233" lon="5.98999">
        <ele>350</ele>
        <time>2022-06-05T02:38:02Z</time>
      </trkpt>
      <trkpt lat="47.02475" lon="5.98897">
        <ele>355</ele>
        <time>2022-06-05T02:40:11Z</time>
      </trkpt>
      <trkpt lat="47.02553" lon="5.98822">
        <ele>355</ele>
        <time>2022-06-05T02:41:26Z</time>
      </trkpt>
      <trkpt lat="47.02574" lon="5.98783">
        <ele>351</ele>
        <time>2022-06-05T02:41:53Z</time>
      </trkpt>
      <trkpt lat="47.02587" lon="5.98691">
        <ele>343</ele>
        <time>2022-06-05T02:42:44Z</time>
      </trkpt>
      <trkpt lat="47.02623" lon="5.98646">
        <ele>342</ele>
        <time>2022-06-05T02:43:22Z</time>
      </trkpt>
      <trkpt lat="47.02653" lon="5.98592">
        <ele>339</ele>
        <time>2022-06-05T02:44:01Z</time>
      </trkpt>
      <trkpt lat="47.02684" lon="5.98573">
        <ele>337</ele>
        <time>2022-06-05T02:44:27Z</time>
      </trkpt>
      <trkpt lat="47.02775" lon="5.98565">
        <ele>334</ele>
        <time>2022-06-05T02:45:41Z</time>
      </trkpt>
      <trkpt lat="47.02816" lon="5.98608">
        <ele>333</ele>
        <time>2022-06-05T02:46:21Z</time>
      </trkpt>
      <trkpt lat="47.02835" lon="5.98649">
        <ele>333</ele>
        <time>2022-06-05T02:46:48Z</time>
      </trkpt>
      <trkpt lat="47.02845" lon="5.98654">
        <ele>333</ele>
        <time>2022-06-05T02:46:56Z</time>
      </trkpt>
      <trkpt lat="47.02867" lon="5.98645">
        <ele>335</ele>
        <time>2022-06-05T02:47:15Z</time>
      </trkpt>
      <trkpt lat="47.02889" lon="5.98593">
        <ele>334</ele>
        <time>2022-06-05T02:47:48Z</time>
      </trkpt>
      <trkpt lat="47.02904" lon="5.98579">
        <ele>334</ele>
        <time>2022-06-05T02:48:02Z</time>
      </trkpt>
      <trkpt lat="47.02909" lon="5.98577">
        <ele>334</ele>
        <time>2022-06-05T02:48:06Z</time>
      </trkpt>
    </trkseg>
  </trk>
</gpx>